Annapolis, Missouri
Current Conditions -  °F | °C
As of 1:15 PM on Saturday 25 Oct 2014 (Local Time) from KFAM Reporting Station
Clear Clear  
Wind Chill: 25°   Ceiling: Unl
Heat Index: 26°   Visibility: 10mi
Dew Point: 17°   Wind: 6mph
Humidity: 61%   Direction: 310°NW
Pressure: 30.06"   Gusts: NA
Location:  37.36°N, 90.7°W
Report Text: KFAM 251815Z AUTO 31005KT 10SM CLR 25/17 A3006 RMK AO1
Loading
Personal Weather Stations






























Interactive Weather Map
Tropical Storm Tracking
New forecast layout! Learn more

10-Day Weather Forecast

Advertisements
Track Severe Weather on mobile